createdAt,value
2019-05-05T00:00:11.320Z,10.90
2019-05-05T00:02:47.488Z,10.90
2019-05-05T00:05:20.150Z,10.80
2019-05-05T00:07:50.114Z,10.70
2019-05-05T00:10:27.491Z,10.80
2019-05-05T00:12:59.138Z,10.90
2019-05-05T00:15:36.989Z,10.80
2019-05-05T00:18:06.989Z,10.80
2019-05-05T00:20:40.442Z,10.80
2019-05-05T00:23:10.381Z,10.80
2019-05-05T00:25:40.361Z,10.80
2019-05-05T00:28:10.387Z,10.80
2019-05-05T00:30:40.401Z,10.70
2019-05-05T00:33:10.384Z,10.60
2019-05-05T00:35:40.312Z,10.50
2019-05-05T00:38:10.260Z,10.40
2019-05-05T00:40:40.407Z,10.30
2019-05-05T00:43:10.376Z,10.30
2019-05-05T00:45:42.477Z,10.20
2019-05-05T00:48:15.272Z,10.20
2019-05-05T00:50:46.394Z,10.10
2019-05-05T00:53:16.423Z,10.10
2019-05-05T00:55:46.401Z,10.10
2019-05-05T00:58:16.391Z,10.00
2019-05-05T01:00:48.319Z,9.90
2019-05-05T01:03:19.961Z,9.90
2019-05-05T01:06:00.326Z,9.80
2019-05-05T01:08:30.391Z,9.90
2019-05-05T01:11:00.350Z,9.90
2019-05-05T01:13:30.304Z,9.90
2019-05-05T01:16:00.264Z,9.90
2019-05-05T01:18:30.196Z,9.90
2019-05-05T01:21:00.158Z,9.90
2019-05-05T01:23:30.160Z,10.00
2019-05-05T01:26:00.724Z,9.90
2019-05-05T01:28:30.742Z,9.80
2019-05-05T01:31:02.339Z,9.70
2019-05-05T01:33:34.423Z,9.70
2019-05-05T01:36:05.427Z,9.50
2019-05-05T01:38:37.100Z,9.40
2019-05-05T01:41:09.663Z,9.40
2019-05-05T01:43:39.715Z,9.30
2019-05-05T01:46:10.582Z,9.30
2019-05-05T01:48:40.575Z,9.20
2019-05-05T01:51:10.498Z,9.00
2019-05-05T01:53:40.451Z,9.00
2019-05-05T01:56:10.774Z,9.00
2019-05-05T01:58:40.957Z,8.80
2019-05-05T02:01:10.922Z,8.80
2019-05-05T02:03:40.892Z,8.90
2019-05-05T02:06:10.828Z,9.00
2019-05-05T02:08:40.777Z,8.90
2019-05-05T02:11:10.794Z,8.90
2019-05-05T02:13:40.779Z,8.90
2019-05-05T02:16:10.799Z,8.90
2019-05-05T02:18:40.727Z,8.80
2019-05-05T02:21:10.658Z,8.70
2019-05-05T02:23:40.687Z,8.70
2019-05-05T02:26:10.935Z,8.70
2019-05-05T02:28:48.272Z,8.70
2019-05-05T02:31:38.266Z,8.80
2019-05-05T02:34:10.024Z,8.80
2019-05-05T02:36:40.048Z,8.80
2019-05-05T02:39:10.952Z,8.90
2019-05-05T02:41:41.849Z,8.90
2019-05-05T02:44:15.490Z,8.70
2019-05-05T02:46:48.105Z,8.70
2019-05-05T02:49:18.471Z,8.60
2019-05-05T02:51:55.151Z,8.60
2019-05-05T02:54:24.864Z,8.50
2019-05-05T02:56:55.342Z,8.60
2019-05-05T02:59:32.484Z,8.50
2019-05-05T03:02:09.978Z,8.40
2019-05-05T03:04:41.053Z,8.30
2019-05-05T03:07:13.810Z,8.30
2019-05-05T03:09:45.392Z,8.30
2019-05-05T03:12:20.073Z,8.10
2019-05-05T03:14:53.629Z,8.10
2019-05-05T03:17:24.037Z,8.10
2019-05-05T03:19:54.594Z,7.90
2019-05-05T03:22:25.914Z,8.00
2019-05-05T03:24:56.113Z,8.00
2019-05-05T03:27:26.599Z,7.70
2019-05-05T03:29:56.826Z,7.60
2019-05-05T03:32:27.406Z,7.50
2019-05-05T03:34:57.626Z,7.60
2019-05-05T03:37:27.813Z,7.70
2019-05-05T03:39:59.655Z,7.60
2019-05-05T03:42:31.249Z,7.60
2019-05-05T03:45:04.168Z,7.50
2019-05-05T03:47:34.414Z,7.50
2019-05-05T03:50:07.106Z,7.40
2019-05-05T03:52:37.359Z,7.40
2019-05-05T03:55:08.871Z,7.30
2019-05-05T03:57:40.046Z,7.40
2019-05-05T04:00:10.487Z,7.40
2019-05-05T04:02:44.837Z,7.30
2019-05-05T04:05:17.488Z,7.30
2019-05-05T04:07:47.598Z,7.10
2019-05-05T04:10:18.142Z,7.10
2019-05-05T04:12:48.930Z,7.10
2019-05-05T04:15:18.925Z,7.10
2019-05-05T04:17:59.766Z,7.10
2019-05-05T04:20:30.888Z,7.00
2019-05-05T04:23:00.837Z,7.10
2019-05-05T04:25:30.842Z,7.10
2019-05-05T04:28:00.886Z,7.10
2019-05-05T04:30:33.686Z,7.10
2019-05-05T04:33:04.063Z,7.10
2019-05-05T04:35:34.183Z,7.10
2019-05-05T04:38:04.724Z,7.00
2019-05-05T04:40:34.976Z,7.00
2019-05-05T04:43:04.936Z,6.80
2019-05-05T04:45:34.969Z,6.80
2019-05-05T04:48:13.753Z,6.80
2019-05-05T04:50:48.371Z,7.00
2019-05-05T04:53:20.039Z,7.10
2019-05-05T04:55:50.101Z,7.10
2019-05-05T04:58:20.104Z,7.20
2019-05-05T05:00:50.066Z,7.20
2019-05-05T05:03:40.165Z,7.20
2019-05-05T05:06:14.772Z,7.30
2019-05-05T05:08:45.194Z,7.40
2019-05-05T05:11:15.148Z,7.30
2019-05-05T05:13:45.165Z,7.20
2019-05-05T05:16:15.090Z,7.00
2019-05-05T05:18:45.145Z,6.80
2019-05-05T05:21:15.042Z,7.00
2019-05-05T05:23:45.003Z,6.80
2019-05-05T05:26:15.002Z,6.80
2019-05-05T05:28:44.934Z,6.80
2019-05-05T05:31:14.924Z,6.70
2019-05-05T05:33:44.838Z,6.70
2019-05-05T05:36:14.759Z,6.60
2019-05-05T05:38:47.401Z,6.60
2019-05-05T05:41:19.064Z,6.50
2019-05-05T05:43:56.919Z,6.40
2019-05-05T05:46:34.457Z,6.40
2019-05-05T05:49:06.861Z,6.50
2019-05-05T05:51:37.375Z,6.30
2019-05-05T05:54:08.927Z,6.30
2019-05-05T05:56:38.838Z,6.30
2019-05-05T05:59:08.810Z,6.40
2019-05-05T06:01:38.744Z,6.40
2019-05-05T06:04:08.671Z,6.50
2019-05-05T06:06:38.596Z,6.40
2019-05-05T06:09:08.531Z,6.50
2019-05-05T06:11:38.630Z,6.40
2019-05-05T06:14:08.527Z,6.40
2019-05-05T06:16:38.435Z,6.40
2019-05-05T06:19:10.282Z,6.30
2019-05-05T06:21:40.070Z,6.30
2019-05-05T06:24:10.092Z,6.30
2019-05-05T06:26:40.001Z,6.30
2019-05-05T06:29:10.000Z,6.30
2019-05-05T06:31:39.990Z,6.40
2019-05-05T06:34:10.000Z,6.40
2019-05-05T06:36:39.991Z,6.50
2019-05-05T06:39:09.902Z,6.40
2019-05-05T06:41:44.303Z,6.20
2019-05-05T06:44:34.355Z,6.00
2019-05-05T06:47:05.935Z,6.10
2019-05-05T06:49:36.732Z,6.20
2019-05-05T06:52:06.671Z,6.00
2019-05-05T06:54:36.839Z,6.00
2019-05-05T06:57:06.845Z,6.10
2019-05-05T06:59:36.874Z,6.20
2019-05-05T07:02:06.833Z,6.20
2019-05-05T07:04:36.751Z,6.20
2019-05-05T07:07:06.690Z,6.20
2019-05-05T07:09:36.615Z,6.30
2019-05-05T07:12:06.598Z,6.30
2019-05-05T07:14:36.524Z,6.50
2019-05-05T07:17:06.536Z,6.40
2019-05-05T07:19:36.535Z,6.10
2019-05-05T07:22:06.440Z,6.10
2019-05-05T07:24:36.340Z,6.20
2019-05-05T07:27:06.242Z,6.20
2019-05-05T07:29:36.147Z,6.20
2019-05-05T07:32:06.102Z,6.40
2019-05-05T07:34:54.640Z,6.50
2019-05-05T07:37:25.812Z,6.60
2019-05-05T07:39:55.732Z,6.60
2019-05-05T07:42:25.639Z,6.40
2019-05-05T07:44:55.558Z,6.20
2019-05-05T07:47:25.479Z,6.30
2019-05-05T07:49:56.260Z,6.20
2019-05-05T07:52:26.160Z,6.30
2019-05-05T07:54:57.197Z,6.20
2019-05-05T07:57:27.188Z,6.20
2019-05-05T07:59:57.187Z,6.20
2019-05-05T08:02:27.190Z,6.30
2019-05-05T08:04:57.103Z,6.30
2019-05-05T08:07:27.023Z,6.50
2019-05-05T08:09:56.933Z,6.60
2019-05-05T08:12:26.866Z,6.50
2019-05-05T08:14:56.786Z,6.50
2019-05-05T08:17:28.396Z,6.60
2019-05-05T08:20:04.009Z,6.80
2019-05-05T08:22:34.202Z,7.20
2019-05-05T08:25:14.363Z,7.30
2019-05-05T08:27:45.475Z,7.30
2019-05-05T08:30:24.427Z,7.10
2019-05-05T08:32:54.659Z,7.20
2019-05-05T08:35:24.724Z,7.20
2019-05-05T08:37:54.741Z,7.10
2019-05-05T08:40:24.743Z,6.90
2019-05-05T08:42:54.645Z,6.90
2019-05-05T08:45:26.699Z,7.10
2019-05-05T08:47:56.301Z,7.00
2019-05-05T08:50:27.277Z,7.00
2019-05-05T08:52:57.295Z,6.90
2019-05-05T08:55:28.474Z,6.90
2019-05-05T08:57:58.573Z,6.90
2019-05-05T09:00:28.596Z,7.00
2019-05-05T09:02:58.534Z,7.10
2019-05-05T09:05:28.451Z,7.00
2019-05-05T09:07:58.372Z,6.80
2019-05-05T09:10:28.285Z,7.10
2019-05-05T09:12:58.205Z,7.10
2019-05-05T09:15:28.215Z,7.10
2019-05-05T09:17:58.138Z,7.30
2019-05-05T09:20:28.052Z,7.10
2019-05-05T09:22:57.964Z,7.10
2019-05-05T09:25:45.919Z,7.20
2019-05-05T09:28:20.463Z,7.20
2019-05-05T09:30:53.518Z,7.20
2019-05-05T09:33:24.774Z,7.10
2019-05-05T09:35:54.919Z,7.30
2019-05-05T09:38:25.019Z,7.30
2019-05-05T09:40:55.019Z,7.20
2019-05-05T09:43:24.994Z,7.30
2019-05-05T09:45:54.987Z,7.30
2019-05-05T09:48:25.020Z,7.20
2019-05-05T09:50:55.812Z,7.20
2019-05-05T09:53:27.349Z,7.20
2019-05-05T09:55:57.468Z,7.20
2019-05-05T09:58:27.426Z,7.20
2019-05-05T10:00:57.490Z,7.10
2019-05-05T10:03:27.414Z,7.20
2019-05-05T10:05:57.470Z,7.20
2019-05-05T10:08:27.466Z,7.30
2019-05-05T10:10:57.577Z,7.20
2019-05-05T10:13:27.529Z,7.40
2019-05-05T10:15:57.444Z,7.70
2019-05-05T10:18:27.451Z,7.50
2019-05-05T10:20:57.362Z,7.50
2019-05-05T10:23:28.960Z,7.60
2019-05-05T10:26:04.364Z,7.70
2019-05-05T10:28:35.602Z,7.70
2019-05-05T10:31:05.568Z,7.50
2019-05-05T10:33:37.155Z,7.60
2019-05-05T10:36:07.054Z,7.60
2019-05-05T10:38:38.930Z,7.70
2019-05-05T10:41:08.837Z,7.90
2019-05-05T10:43:38.760Z,7.90
2019-05-05T10:46:08.775Z,7.70
2019-05-05T10:48:38.701Z,7.80
2019-05-05T10:51:09.435Z,8.00
2019-05-05T10:53:39.370Z,8.00
2019-05-05T10:56:09.639Z,8.30
2019-05-05T10:58:39.550Z,8.30
2019-05-05T11:01:09.555Z,8.40
2019-05-05T11:03:39.685Z,8.40
2019-05-05T11:06:09.828Z,8.20
2019-05-05T11:08:40.192Z,8.50
2019-05-05T11:11:10.111Z,8.60
2019-05-05T11:13:42.745Z,8.50
2019-05-05T11:16:11.708Z,8.40
2019-05-05T11:18:42.191Z,8.40
2019-05-05T11:21:14.316Z,8.50
2019-05-05T11:23:44.785Z,8.70
2019-05-05T11:26:14.893Z,8.60
2019-05-05T11:28:44.856Z,8.60
2019-05-05T11:31:14.794Z,8.60
2019-05-05T11:33:58.430Z,8.60
2019-05-05T11:36:38.796Z,8.50
2019-05-05T11:39:09.106Z,8.50
2019-05-05T11:41:39.099Z,8.50
2019-05-05T11:44:09.045Z,8.70
2019-05-05T11:46:39.083Z,8.80
2019-05-05T11:49:09.048Z,8.70
2019-05-05T11:51:40.668Z,8.60
2019-05-05T11:54:10.643Z,8.30
2019-05-05T11:56:40.599Z,8.40
2019-05-05T11:59:10.528Z,8.40
2019-05-05T12:01:40.444Z,8.50
2019-05-05T12:04:12.010Z,8.60
2019-05-05T12:06:44.118Z,8.70
2019-05-05T12:09:15.476Z,8.70
2019-05-05T12:11:45.471Z,8.60
2019-05-05T12:14:17.059Z,8.90
2019-05-05T12:16:48.170Z,8.90
2019-05-05T12:19:18.110Z,9.00
2019-05-05T12:21:48.048Z,9.10
2019-05-05T12:24:19.618Z,8.90
2019-05-05T12:26:51.152Z,9.00
2019-05-05T12:29:21.083Z,8.80
2019-05-05T12:31:50.981Z,8.90
2019-05-05T12:34:20.893Z,8.90
2019-05-05T12:36:50.817Z,8.90
2019-05-05T12:39:20.755Z,9.00
2019-05-05T12:41:50.932Z,9.10
2019-05-05T12:44:23.621Z,9.30
2019-05-05T12:46:55.435Z,9.30
2019-05-05T12:49:25.515Z,9.30
2019-05-05T12:51:56.533Z,9.30
2019-05-05T12:54:26.587Z,9.30
2019-05-05T12:56:56.675Z,9.20
2019-05-05T12:59:26.955Z,9.40
2019-05-05T13:01:56.895Z,9.30
2019-05-05T13:04:26.928Z,9.40
2019-05-05T13:06:56.918Z,9.40
2019-05-05T13:09:27.460Z,9.50
2019-05-05T13:11:57.471Z,9.60
2019-05-05T13:14:27.423Z,9.50
2019-05-05T13:16:57.415Z,9.40
2019-05-05T13:19:28.968Z,9.40
2019-05-05T13:22:06.555Z,9.50
2019-05-05T13:24:43.648Z,9.40
2019-05-05T13:27:30.499Z,9.50
2019-05-05T13:30:07.424Z,9.50
2019-05-05T13:32:37.571Z,10.20
2019-05-05T13:37:37.390Z,9.10
2019-05-05T13:40:07.758Z,8.90
2019-05-05T13:42:37.678Z,9.60
2019-05-05T13:45:29.953Z,9.40
2019-05-05T13:48:00.241Z,9.60
2019-05-05T13:50:34.127Z,9.70
2019-05-05T13:53:05.229Z,9.70
2019-05-05T13:55:35.194Z,9.60
2019-05-05T13:58:08.372Z,9.50
2019-05-05T14:00:37.315Z,9.50
2019-05-05T14:03:07.311Z,9.60
2019-05-05T14:05:37.371Z,9.50
2019-05-05T14:08:07.472Z,9.70
2019-05-05T14:10:37.485Z,9.60
2019-05-05T14:13:10.376Z,9.50
2019-05-05T14:15:39.171Z,9.50
2019-05-05T14:18:09.151Z,9.50
2019-05-05T14:20:39.081Z,9.50
2019-05-05T14:23:08.984Z,9.50
2019-05-05T14:25:38.963Z,9.50
2019-05-05T14:28:09.029Z,9.60
2019-05-05T14:30:55.826Z,9.70
2019-05-05T14:33:31.444Z,10.00
2019-05-05T14:36:15.267Z,9.80
2019-05-05T14:38:49.435Z,9.70
2019-05-05T14:41:18.817Z,9.80
2019-05-05T14:43:48.788Z,9.80
2019-05-05T14:46:18.736Z,10.00
2019-05-05T14:48:48.730Z,9.60
2019-05-05T14:51:18.803Z,9.60
2019-05-05T14:53:49.539Z,9.40
2019-05-05T14:56:19.560Z,9.20
2019-05-05T14:58:49.556Z,9.20
2019-05-05T15:01:19.524Z,9.20
2019-05-05T15:03:49.500Z,9.30
2019-05-05T15:06:27.326Z,9.80
2019-05-05T15:09:14.024Z,9.40
2019-05-05T15:11:48.562Z,9.00
2019-05-05T15:14:18.556Z,9.50
2019-05-05T15:16:48.515Z,9.60
2019-05-05T15:19:18.533Z,9.60
2019-05-05T15:21:48.976Z,9.60
2019-05-05T15:24:20.411Z,9.70
2019-05-05T15:26:54.296Z,9.80
2019-05-05T15:29:22.081Z,9.80
2019-05-05T15:31:53.725Z,9.90
2019-05-05T15:34:24.156Z,9.90
2019-05-05T15:36:54.785Z,9.90
2019-05-05T15:39:25.009Z,9.90
2019-05-05T15:41:55.032Z,9.80
2019-05-05T15:44:34.487Z,9.80
2019-05-05T15:47:04.599Z,9.80
2019-05-05T15:49:34.675Z,9.80
2019-05-05T15:52:07.059Z,9.80
2019-05-05T15:54:36.689Z,9.80
2019-05-05T15:57:08.788Z,9.60
2019-05-05T15:59:38.304Z,9.70
2019-05-05T16:02:08.279Z,9.70
2019-05-05T16:04:38.227Z,9.60
2019-05-05T16:07:08.635Z,9.60
2019-05-05T16:09:38.674Z,9.50
2019-05-05T16:12:08.627Z,9.50
2019-05-05T16:14:40.239Z,9.40
2019-05-05T16:17:13.550Z,9.40
2019-05-05T16:19:46.160Z,9.40
2019-05-05T16:22:25.462Z,9.30
2019-05-05T16:25:10.947Z,9.30
2019-05-05T16:27:44.006Z,9.20
2019-05-05T16:30:15.622Z,9.30
2019-05-05T16:32:45.732Z,9.20
2019-05-05T16:35:16.068Z,9.10
2019-05-05T16:37:46.073Z,9.20
2019-05-05T16:40:16.570Z,9.20
2019-05-05T16:42:46.522Z,9.20
2019-05-05T16:45:17.135Z,9.10
2019-05-05T16:47:47.207Z,9.10
2019-05-05T16:50:17.490Z,9.10
2019-05-05T16:52:49.216Z,9.10
2019-05-05T16:55:30.615Z,9.10
2019-05-05T16:58:00.792Z,9.10
2019-05-05T17:00:31.672Z,9.10
2019-05-05T17:03:01.674Z,9.10
2019-05-05T17:05:31.872Z,9.10
2019-05-05T17:08:01.836Z,9.00
2019-05-05T17:10:31.803Z,9.10
2019-05-05T17:13:03.626Z,9.00
2019-05-05T17:15:35.521Z,8.90
2019-05-05T17:18:08.588Z,8.90
2019-05-05T17:20:56.874Z,8.90
2019-05-05T17:23:26.880Z,9.00
2019-05-05T17:25:56.857Z,9.00
2019-05-05T17:28:26.930Z,8.90
2019-05-05T17:30:56.956Z,9.00
2019-05-05T17:33:26.944Z,9.00
2019-05-05T17:35:56.947Z,9.00
2019-05-05T17:38:34.117Z,9.00
2019-05-05T17:41:07.171Z,9.00
2019-05-05T17:43:54.269Z,9.10
2019-05-05T17:46:28.763Z,9.00
2019-05-05T17:49:00.370Z,9.10
2019-05-05T17:51:50.196Z,9.00
2019-05-05T17:54:34.035Z,9.00
2019-05-05T17:57:14.117Z,9.00
2019-05-05T17:59:44.164Z,8.90
2019-05-05T18:02:15.265Z,8.80
2019-05-05T18:04:45.899Z,8.70
2019-05-05T18:07:34.468Z,8.70
2019-05-05T18:10:09.054Z,8.70
2019-05-05T18:12:56.040Z,8.60
2019-05-05T18:15:43.703Z,8.60
2019-05-05T18:18:13.940Z,8.60
2019-05-05T18:20:44.937Z,8.60
2019-05-05T18:23:16.168Z,8.60
2019-05-05T18:25:46.397Z,8.60
2019-05-05T18:28:19.984Z,8.60
2019-05-05T18:30:48.092Z,8.50
2019-05-05T18:33:18.370Z,8.50
2019-05-05T18:35:48.428Z,8.60
2019-05-05T18:38:18.367Z,8.60
2019-05-05T18:40:49.418Z,8.60
2019-05-05T18:43:20.982Z,8.60
2019-05-05T18:45:53.726Z,8.60
2019-05-05T18:48:23.854Z,8.70
2019-05-05T18:50:54.192Z,8.70
2019-05-05T18:53:24.303Z,8.70
2019-05-05T18:55:54.280Z,8.70
2019-05-05T18:58:29.693Z,8.70
2019-05-05T19:01:00.693Z,8.70
2019-05-05T19:03:33.737Z,8.70
2019-05-05T19:06:08.431Z,8.60
2019-05-05T19:08:51.829Z,8.60
2019-05-05T19:11:11.697Z,8.70
2019-05-05T19:13:41.666Z,8.70
2019-05-05T19:16:11.744Z,8.70
2019-05-05T19:18:41.749Z,8.70
2019-05-05T19:21:14.257Z,8.70
2019-05-05T19:23:44.815Z,8.80
2019-05-05T19:26:14.894Z,8.80
2019-05-05T19:28:49.928Z,8.80
2019-05-05T19:31:17.602Z,8.80
2019-05-05T19:33:47.691Z,8.90
2019-05-05T19:36:17.749Z,8.80
2019-05-05T19:38:47.772Z,8.80
2019-05-05T19:41:17.799Z,8.90
2019-05-05T19:43:54.739Z,8.90
2019-05-05T19:46:27.048Z,8.90
2019-05-05T19:49:16.034Z,8.90
2019-05-05T19:51:46.798Z,8.90
2019-05-05T19:54:17.025Z,8.90
2019-05-05T19:56:47.108Z,8.90
2019-05-05T19:59:18.159Z,8.90
2019-05-05T20:01:48.196Z,8.90
2019-05-05T20:04:18.297Z,8.90
2019-05-05T20:06:48.313Z,8.80
2019-05-05T20:09:18.251Z,8.90
2019-05-05T20:11:48.309Z,8.90
2019-05-05T20:14:18.327Z,8.90
2019-05-05T20:17:06.373Z,8.90
2019-05-05T20:19:37.965Z,8.90
2019-05-05T20:22:08.000Z,8.80
2019-05-05T20:24:38.023Z,8.80
2019-05-05T20:27:08.155Z,8.90
2019-05-05T20:29:38.265Z,8.90
2019-05-05T20:32:08.314Z,8.90
2019-05-05T20:34:40.015Z,8.90
2019-05-05T20:37:17.475Z,8.80
2019-05-05T20:39:49.166Z,8.90
2019-05-05T20:42:19.148Z,9.00
2019-05-05T20:44:49.110Z,9.00
2019-05-05T20:47:19.126Z,8.90
2019-05-05T20:49:49.282Z,8.90
2019-05-05T20:52:19.363Z,8.90
2019-05-05T20:54:49.468Z,8.80
2019-05-05T20:57:19.406Z,8.90
2019-05-05T20:59:49.511Z,8.90
2019-05-05T21:02:19.522Z,8.90
2019-05-05T21:04:49.553Z,8.80
2019-05-05T21:07:19.567Z,8.80
2019-05-05T21:09:49.584Z,8.80
2019-05-05T21:12:19.600Z,8.70
2019-05-05T21:14:49.609Z,8.70
2019-05-05T21:17:19.600Z,8.70
2019-05-05T21:19:49.535Z,8.70
2019-05-05T21:22:33.963Z,8.70
2019-05-05T21:25:08.338Z,8.70
2019-05-05T21:27:43.530Z,8.70
2019-05-05T21:30:14.296Z,8.70
2019-05-05T21:32:44.397Z,8.80
2019-05-05T21:35:14.334Z,8.70
2019-05-05T21:37:44.854Z,8.80
2019-05-05T21:40:15.929Z,8.80
2019-05-05T21:42:45.838Z,8.80
2019-05-05T21:45:15.772Z,8.80
2019-05-05T21:47:48.481Z,8.90
2019-05-05T21:50:20.038Z,8.90
2019-05-05T21:52:54.608Z,8.90
2019-05-05T21:55:33.986Z,8.90
2019-05-05T21:58:08.767Z,8.80
2019-05-05T22:00:50.231Z,8.80
2019-05-05T22:03:24.945Z,8.80
2019-05-05T22:05:56.034Z,8.90
2019-05-05T22:08:26.220Z,8.80
2019-05-05T22:10:56.157Z,8.80
2019-05-05T22:13:26.177Z,8.80
2019-05-05T22:15:56.179Z,8.80
2019-05-05T22:18:26.211Z,8.80
2019-05-05T22:21:06.919Z,8.90
2019-05-05T22:23:37.095Z,8.80
2019-05-05T22:26:07.018Z,8.90
2019-05-05T22:28:37.047Z,8.80
2019-05-05T22:31:07.056Z,8.90
2019-05-05T22:33:37.279Z,8.90
2019-05-05T22:36:07.248Z,8.90
2019-05-05T22:38:38.411Z,8.90
2019-05-05T22:41:08.409Z,8.90
2019-05-05T22:43:38.425Z,8.90
2019-05-05T22:46:08.396Z,8.90
2019-05-05T22:48:38.346Z,8.80
2019-05-05T22:51:08.364Z,8.80
2019-05-05T22:53:38.391Z,8.80
2019-05-05T22:56:08.345Z,8.80
2019-05-05T22:58:38.353Z,8.80
2019-05-05T23:01:09.187Z,8.80
2019-05-05T23:03:40.758Z,8.70
2019-05-05T23:06:13.798Z,8.70
2019-05-05T23:08:46.983Z,8.70
2019-05-05T23:11:17.043Z,8.70
2019-05-05T23:13:46.996Z,8.70
2019-05-05T23:16:21.535Z,8.70
2019-05-05T23:18:51.555Z,8.70
2019-05-05T23:21:26.226Z,8.70
2019-05-05T23:24:14.615Z,8.70
2019-05-05T23:26:46.231Z,8.70
2019-05-05T23:29:16.164Z,8.70
2019-05-05T23:31:49.130Z,8.70
2019-05-05T23:34:19.055Z,8.70
2019-05-05T23:36:49.005Z,8.70
2019-05-05T23:39:20.018Z,8.70
2019-05-05T23:41:49.967Z,8.80
2019-05-05T23:44:19.947Z,8.70
2019-05-05T23:46:49.884Z,8.80
2019-05-05T23:49:19.908Z,8.80
2019-05-05T23:51:50.842Z,8.70
2019-05-05T23:54:20.798Z,8.70
2019-05-05T23:56:53.794Z,8.70
2019-05-05T23:59:24.089Z,8.70
